Time;durP1;ratioP1;P1;durP2;ratioP2;P2;SDS_P1;SDS_P2;PMS_P1;PMS_P2;Temp;Humidity;BMP_temperature;BMP_pressure;BME280_temperature;BME280_humidity;BME280_pressure;Samples;Min_cycle;Max_cycle;Signal;HPM_P1;HPM_P2
2024/02/17 00:02:21;;;;;;;13.15;10.13;;;;;;;8.80;100.00;102412.03;5130974;28;19918;-40
2024/02/17 00:04:46;;;;;;;14.30;9.90;;;;;;;8.80;100.00;102415.56;5131002;27;20461;-40
2024/02/17 00:07:12;;;;;;;16.40;10.13;;;;;;;8.80;100.00;102423.66;5119402;27;20035;-40
2024/02/17 00:09:37;;;;;;;14.40;10.23;;;;;;;8.79;100.00;102427.38;5117173;28;20046;-40
2024/02/17 00:12:03;;;;;;;13.10;9.63;;;;;;;8.77;100.00;102426.69;5116713;28;20517;-40
2024/02/17 00:14:28;;;;;;;14.90;10.30;;;;;;;8.82;100.00;102423.47;5117550;28;20039;-40
2024/02/17 00:16:54;;;;;;;12.07;9.20;;;;;;;8.80;100.00;102422.81;5116704;27;20024;-39
2024/02/17 00:19:19;;;;;;;13.13;9.73;;;;;;;8.83;100.00;102431.34;5117539;28;20038;-39
2024/02/17 00:21:45;;;;;;;15.05;9.65;;;;;;;8.83;100.00;102434.06;5116560;28;20682;-40
2024/02/17 00:24:10;;;;;;;14.13;9.95;;;;;;;8.76;100.00;102433.94;5116595;28;20031;-40
2024/02/17 00:26:37;;;;;;;10.97;9.60;;;;;;;8.83;100.00;102444.84;5116852;28;20034;-40
2024/02/17 00:29:03;;;;;;;13.27;9.82;;;;;;;8.79;100.00;102453.50;5116458;28;20031;-40
2024/02/17 00:31:28;;;;;;;16.73;10.50;;;;;;;8.80;100.00;102450.63;5116932;28;20036;-39
2024/02/17 00:33:54;;;;;;;17.08;10.45;;;;;;;8.83;100.00;102444.84;5116553;28;20019;-39
2024/02/17 00:36:19;;;;;;;13.23;10.13;;;;;;;8.74;100.00;102435.16;5116352;28;20070;-40
2024/02/17 00:38:44;;;;;;;15.00;10.60;;;;;;;8.76;100.00;102447.44;5116855;28;20031;-40
2024/02/17 00:41:10;;;;;;;13.18;10.75;;;;;;;8.75;100.00;102448.47;5115974;28;20027;-39
2024/02/17 00:43:36;;;;;;;14.27;9.98;;;;;;;8.77;100.00;102456.38;5117036;28;20031;-40
2024/02/17 00:46:02;;;;;;;11.02;9.73;;;;;;;8.74;100.00;102452.19;5116140;28;20489;-39
2024/02/17 00:48:27;;;;;;;13.77;10.63;;;;;;;8.71;100.00;102446.31;5116732;28;20459;-39
2024/02/17 00:50:53;;;;;;;12.88;9.27;;;;;;;8.75;100.00;102463.81;5115998;28;20027;-40
2024/02/17 00:53:18;;;;;;;14.88;10.38;;;;;;;8.75;100.00;102467.34;5116596;28;20039;-39
2024/02/17 00:55:44;;;;;;;14.70;9.53;;;;;;;8.77;100.00;102461.75;5116232;27;20051;-40
2024/02/17 00:58:09;;;;;;;15.02;9.35;;;;;;;8.77;100.00;102464.47;5115909;28;20035;-40
2024/02/17 01:00:34;;;;;;;12.93;8.80;;;;;;;8.75;100.00;102458.41;5115874;28;20066;-40
2024/02/17 01:03:00;;;;;;;13.57;9.13;;;;;;;8.73;100.00;102455.03;5115650;27;20395;-40
2024/02/17 01:05:25;;;;;;;13.10;9.37;;;;;;;8.66;100.00;102449.53;5115470;28;20348;-40
2024/02/17 01:07:50;;;;;;;13.07;8.33;;;;;;;8.77;100.00;102472.53;5116331;28;20028;-40
2024/02/17 01:10:17;;;;;;;15.17;9.33;;;;;;;8.80;100.00;102472.19;5116246;28;20023;-40
2024/02/17 01:12:43;;;;;;;16.17;9.85;;;;;;;8.80;100.00;102474.91;5115567;28;20273;-40
2024/02/17 01:15:09;;;;;;;12.57;9.13;;;;;;;8.75;100.00;102463.81;5115245;28;20115;-40
2024/02/17 01:17:34;;;;;;;;;;;;;;;8.89;100.00;102473.81;5115185;28;20031;-41
2024/02/17 01:19:59;;;;;;;12.88;8.88;;;;;;;8.82;100.00;102477.41;5115360;28;19908;-40
2024/02/17 01:22:25;;;;;;;14.37;9.30;;;;;;;8.80;100.00;102469.50;5115438;28;20382;-41
2024/02/17 01:24:50;;;;;;;11.38;8.70;;;;;;;8.82;100.00;102480.09;5116262;28;20260;-40
2024/02/17 01:27:16;;;;;;;11.03;8.40;;;;;;;8.82;100.00;102480.94;5115041;28;20383;-41
2024/02/17 01:29:41;;;;;;;14.97;8.57;;;;;;;8.80;100.00;102474.06;5114918;28;20265;-41
2024/02/17 01:32:06;;;;;;;13.80;9.37;;;;;;;8.77;100.00;102472.53;5115749;28;20026;-41
2024/02/17 01:34:32;;;;;;;13.10;9.33;;;;;;;8.84;100.00;102496.97;5115176;28;20028;-41
2024/02/17 01:36:57;;;;;;;11.87;8.17;;;;;;;8.84;100.00;102492.41;5114870;28;20282;-41
2024/02/17 01:39:27;;;;;;;14.23;9.03;;;;;;;8.84;100.00;102499.66;5115153;28;20032;-41
2024/02/17 01:41:53;;;;;;;12.38;9.02;;;;;;;8.73;100.00;102476.63;5115282;28;20026;-41
2024/02/17 01:44:18;;;;;;;18.70;9.13;;;;;;;8.85;100.00;102499.47;5115032;28;20404;-41
2024/02/17 01:46:44;;;;;;;15.73;9.00;;;;;;;8.84;100.00;102500.50;5115322;28;20038;-41
2024/02/17 01:49:10;;;;;;;15.25;9.60;;;;;;;8.84;100.00;102497.81;5115773;28;20024;-41
2024/02/17 01:51:36;;;;;;;13.27;9.27;;;;;;;8.82;100.00;102496.28;5114858;28;20023;-40
2024/02/17 01:54:01;;;;;;;14.70;9.32;;;;;;;8.84;100.00;102500.50;5114805;28;20028;-40
2024/02/17 01:56:28;;;;;;;15.05;8.85;;;;;;;8.75;100.00;102491.63;5114375;28;20047;-40
2024/02/17 01:58:54;;;;;;;;;;;;;;;8.94;100.00;102511.91;5115990;28;20031;-40
2024/02/17 02:01:19;;;;;;;11.77;8.70;;;;;;;8.87;100.00;102507.38;5114435;28;19950;-40
2024/02/17 02:03:45;;;;;;;14.45;8.57;;;;;;;8.89;100.00;102519.69;5114928;28;20404;-40
2024/02/17 02:06:12;;;;;;;13.18;9.15;;;;;;;8.87;100.00;102521.72;5114631;28;20447;-40
2024/02/17 02:08:38;;;;;;;16.00;9.02;;;;;;;8.88;100.00;102519.84;5115135;28;20023;-40
2024/02/17 02:11:04;;;;;;;13.82;9.02;;;;;;;8.84;100.00;102516.69;5114308;28;20023;-40
2024/02/17 02:13:30;;;;;;;14.85;9.27;;;;;;;8.88;100.00;102525.25;5115080;28;20020;-40
2024/02/17 02:15:55;;;;;;;14.52;9.90;;;;;;;8.89;100.00;102530.47;5114409;28;20029;-40
2024/02/17 02:18:21;;;;;;;12.15;9.43;;;;;;;8.84;100.00;102530.19;5114442;28;20107;-40
2024/02/17 02:20:49;;;;;;;12.68;9.13;;;;;;;8.89;100.00;102540.44;5114427;28;20473;-40
2024/02/17 02:23:15;;;;;;;19.10;10.32;;;;;;;8.87;100.00;102543.28;5114278;28;20028;-40
2024/02/17 02:25:54;;;;;;;12.45;9.18;;;;;;;8.87;100.00;102545.97;5114471;28;20023;-40
2024/02/17 02:28:20;;;;;;;14.45;9.43;;;;;;;8.81;100.00;102535.06;5114558;28;20360;-39
2024/02/17 02:30:46;;;;;;;18.13;10.55;;;;;;;8.84;100.00;102553.63;5113627;28;20030;-40
2024/02/17 02:33:12;;;;;;;18.17;9.68;;;;;;;8.84;100.00;102554.44;5115043;28;20099;-40
2024/02/17 02:35:37;;;;;;;19.35;10.50;;;;;;;8.80;100.00;102541.50;5113822;28;20432;-39
2024/02/17 02:38:03;;;;;;;17.17;9.98;;;;;;;8.87;100.00;102558.63;5114967;28;20088;-40
2024/02/17 02:40:29;;;;;;;17.10;9.73;;;;;;;8.87;100.00;102554.06;5114063;28;20119;-40
2024/02/17 02:42:54;;;;;;;13.82;9.75;;;;;;;8.85;100.00;102566.09;5114068;28;20475;-40
2024/02/17 02:45:20;;;;;;;16.27;9.43;;;;;;;8.86;100.00;102573.16;5114045;28;20379;-40
2024/02/17 02:47:47;;;;;;;14.10;9.40;;;;;;;8.85;100.00;102574.19;5114341;28;20445;-41
2024/02/17 02:50:12;;;;;;;18.88;10.55;;;;;;;8.84;100.00;102573.34;5113944;28;20391;-40
2024/02/17 02:52:38;;;;;;;18.73;9.98;;;;;;;8.86;100.00;102573.16;5113917;28;20059;-40
2024/02/17 02:55:05;;;;;;;14.13;9.57;;;;;;;8.83;100.00;102577.03;5114133;28;20052;-40
2024/02/17 02:57:30;;;;;;;15.32;9.23;;;;;;;8.84;100.00;102576.03;5113899;28;20031;-40
2024/02/17 02:59:56;;;;;;;13.68;9.68;;;;;;;8.71;100.00;102560.41;5114141;28;20032;-40
2024/02/17 03:02:21;;;;;;;13.57;9.73;;;;;;;8.77;100.00;102566.97;5114688;28;20016;-39
2024/02/17 03:04:47;;;;;;;14.40;9.82;;;;;;;8.83;100.00;102576.19;5114102;28;20106;-40
2024/02/17 03:07:12;;;;;;;17.20;10.05;;;;;;;8.83;100.00;102579.72;5113503;28;20030;-40
2024/02/17 03:09:38;;;;;;;16.43;10.20;;;;;;;8.83;100.00;102586.97;5113869;28;20031;-40
2024/02/17 03:12:03;;;;;;;16.13;10.37;;;;;;;8.85;100.00;102590.38;5114588;28;20301;-39
2024/02/17 03:14:29;;;;;;;14.82;9.80;;;;;;;8.80;100.00;102576.56;5113771;28;20016;-39
2024/02/17 03:16:54;;;;;;;16.93;10.40;;;;;;;8.83;100.00;102595.91;5113422;28;20028;-39
2024/02/17 03:19:19;;;;;;;14.80;10.00;;;;;;;8.85;100.00;102601.16;5113739;28;20249;-40
2024/02/17 03:21:45;;;;;;;17.00;10.47;;;;;;;8.85;100.00;102603.84;5113670;28;20360;-40
2024/02/17 03:24:10;;;;;;;17.17;10.60;;;;;;;8.76;100.00;102595.78;5113640;28;20032;-40
2024/02/17 03:26:36;;;;;;;13.47;10.27;;;;;;;8.86;100.00;102603.66;5113320;28;20110;-41
2024/02/17 03:29:02;;;;;;;14.13;10.20;;;;;;;8.84;100.00;102607.56;5113358;28;20246;-40
2024/02/17 03:31:27;;;;;;;18.35;10.73;;;;;;;8.84;100.00;102610.28;5113858;28;20485;-41
2024/02/17 03:33:54;;;;;;;15.57;10.87;;;;;;;8.80;100.00;102604.38;5113828;28;20111;-41
2024/02/17 03:36:19;;;;;;;15.95;9.90;;;;;;;8.81;100.00;102610.59;5113692;28;20388;-41
2024/02/17 03:38:45;;;;;;;13.50;9.90;;;;;;;8.84;100.00;102621.91;5114094;28;20029;-48
2024/02/17 03:41:11;;;;;;;15.85;9.63;;;;;;;8.76;100.00;102613.84;5114506;28;20512;-40
2024/02/17 03:43:36;;;;;;;14.95;9.43;;;;;;;8.83;100.00;102622.88;5117711;28;20110;-40
2024/02/17 03:46:02;;;;;;;18.37;9.80;;;;;;;8.83;100.00;102627.44;5116986;28;20157;-40
2024/02/17 03:48:27;;;;;;;13.43;8.95;;;;;;;8.76;100.00;102617.38;5117602;28;20254;-40
2024/02/17 03:50:52;;;;;;;15.30;9.60;;;;;;;8.85;100.00;102636.22;5117709;28;20172;-40
2024/02/17 03:53:19;;;;;;;13.67;8.60;;;;;;;8.82;100.00;102629.31;5117801;28;20034;-40
2024/02/17 03:55:44;;;;;;;15.32;9.98;;;;;;;8.83;100.00;102633.69;5117566;28;20304;-40
2024/02/17 03:58:10;;;;;;;16.00;9.63;;;;;;;8.85;100.00;102647.00;5117661;28;20347;-40
2024/02/17 04:00:35;;;;;;;13.88;9.57;;;;;;;8.83;100.00;102641.78;5117093;27;20039;-40
2024/02/17 04:03:01;;;;;;;12.77;8.90;;;;;;;8.74;100.00;102621.28;5117552;28;20027;-40
2024/02/17 04:05:26;;;;;;;11.52;8.85;;;;;;;8.83;100.00;102649.88;5116965;28;20433;-40
2024/02/17 04:07:52;;;;;;;14.82;9.73;;;;;;;8.85;100.00;102652.41;5117549;28;20028;-40
2024/02/17 04:10:17;;;;;;;13.60;9.13;;;;;;;8.77;100.00;102643.31;5116884;28;20103;-41
2024/02/17 04:12:43;;;;;;;13.37;9.13;;;;;;;8.83;100.00;102646.34;5117328;28;20026;-40
2024/02/17 04:15:08;;;;;;;15.80;8.83;;;;;;;8.84;100.00;102658.81;5117249;28;20331;-40
2024/02/17 04:17:34;;;;;;;13.18;9.15;;;;;;;8.83;100.00;102666.06;5116747;27;20451;-41
2024/02/17 04:19:59;;;;;;;11.07;9.00;;;;;;;8.71;100.00;102644.03;5117366;28;20024;-41
2024/02/17 04:22:25;;;;;;;13.65;9.25;;;;;;;8.83;100.00;102666.06;5116624;28;20417;-41
2024/02/17 04:24:51;;;;;;;15.40;8.75;;;;;;;8.82;100.00;102668.94;5117202;28;20379;-41
2024/02/17 04:27:16;;;;;;;11.50;8.52;;;;;;;8.87;100.00;102674.66;5116499;28;20076;-41
2024/02/17 04:29:42;;;;;;;13.43;8.27;;;;;;;8.86;100.00;102671.09;5117330;28;20024;-40
2024/02/17 04:32:08;;;;;;;13.85;8.82;;;;;;;8.85;100.00;102671.28;5116315;28;20036;-40
2024/02/17 04:34:34;;;;;;;;;;;;;;;8.94;100.00;102686.44;5117581;28;20036;-40
2024/02/17 04:36:59;;;;;;;10.13;7.72;;;;;;;8.86;100.00;102679.19;5116657;28;20396;-40
2024/02/17 04:39:24;;;;;;;14.67;7.73;;;;;;;8.87;100.00;102688.13;5116900;28;20439;-40
2024/02/17 04:41:50;;;;;;;11.70;8.00;;;;;;;8.87;100.00;102682.75;5115916;28;20031;-39
2024/02/17 04:44:15;;;;;;;9.30;7.63;;;;;;;8.86;100.00;102686.47;5116459;28;20023;-40
2024/02/17 04:46:40;;;;;;;14.23;8.03;;;;;;;8.87;100.00;102685.44;5116146;28;20292;-40
2024/02/17 04:49:06;;;;;;;16.40;8.63;;;;;;;8.86;100.00;102690.00;5116248;28;20024;-40
2024/02/17 04:51:31;;;;;;;12.57;8.00;;;;;;;8.80;100.00;102682.59;5115824;28;20269;-40
2024/02/17 04:53:56;;;;;;;17.42;8.13;;;;;;;8.86;100.00;102694.56;5115753;28;20471;-40
2024/02/17 04:56:22;;;;;;;14.57;8.57;;;;;;;8.88;100.00;102700.59;5116480;28;20139;-39
2024/02/17 04:58:47;;;;;;;12.20;7.73;;;;;;;8.87;100.00;102704.31;5116249;28;20119;-40
2024/02/17 05:01:12;;;;;;;13.87;7.37;;;;;;;8.88;100.00;102711.41;5115646;28;20025;-41
2024/02/17 05:03:38;;;;;;;10.77;7.47;;;;;;;8.88;100.00;102719.50;5116158;28;20035;-40
2024/02/17 05:06:03;;;;;;;13.73;7.93;;;;;;;8.89;100.00;102730.13;5116457;28;20040;-40
2024/02/17 05:08:29;;;;;;;11.23;7.35;;;;;;;8.88;100.00;102727.59;5115794;28;20026;-40
2024/02/17 05:10:54;;;;;;;14.90;8.32;;;;;;;8.87;100.00;102729.44;5116278;28;20122;-40
2024/02/17 05:13:20;;;;;;;13.90;7.57;;;;;;;8.87;100.00;102734.84;5115710;28;20114;-41
2024/02/17 05:15:45;;;;;;;11.20;8.10;;;;;;;8.88;100.00;102738.38;5115554;28;20321;-40
2024/02/17 05:18:11;;;;;;;10.25;7.47;;;;;;;8.86;100.00;102735.84;5115845;28;20068;-40
2024/02/17 05:20:36;;;;;;;9.93;7.40;;;;;;;8.87;100.00;102744.78;5115527;28;20024;-40
2024/02/17 05:23:02;;;;;;;11.03;7.33;;;;;;;8.85;100.00;102744.97;5116019;28;20098;-40
2024/02/17 05:25:27;;;;;;;13.95;7.82;;;;;;;8.87;100.00;102751.03;5115354;28;20047;-39
2024/02/17 05:27:52;;;;;;;13.53;8.00;;;;;;;8.87;100.00;102756.41;5115111;28;20038;-41
2024/02/17 05:30:18;;;;;;;12.48;8.18;;;;;;;8.85;100.00;102755.75;5116197;28;20254;-41
2024/02/17 05:32:44;;;;;;;14.30;7.88;;;;;;;8.76;100.00;102741.44;5115280;28;20028;-39
2024/02/17 05:35:09;;;;;;;14.80;8.07;;;;;;;8.87;100.00;102775.31;5115470;27;20031;-39
2024/02/17 05:37:35;;;;;;;14.30;7.77;;;;;;;8.87;100.00;102774.47;5115154;28;20131;-39
2024/02/17 05:40:01;;;;;;;10.98;7.35;;;;;;;8.87;100.00;102774.47;5115117;28;20022;-41
2024/02/17 05:42:27;;;;;;;11.70;7.40;;;;;;;8.84;100.00;102778.38;5115591;28;20024;-41
2024/02/17 05:44:52;;;;;;;10.43;7.22;;;;;;;8.86;100.00;102779.03;5115882;28;20508;-41
2024/02/17 05:47:18;;;;;;;11.50;7.40;;;;;;;8.86;100.00;102789.81;5115224;28;20482;-41
2024/02/17 05:49:45;;;;;;;11.17;7.03;;;;;;;8.86;100.00;102788.97;5115291;28;20031;-41
2024/02/17 05:52:10;;;;;;;12.32;7.55;;;;;;;8.83;100.00;102797.41;5115145;28;20499;-41
2024/02/17 05:54:36;;;;;;;10.30;7.57;;;;;;;8.84;100.00;102791.84;5114614;28;20085;-39
2024/02/17 05:57:01;;;;;;;15.43;8.07;;;;;;;8.74;100.00;102773.16;5114854;28;20102;-39
2024/02/17 05:59:26;;;;;;;14.23;7.70;;;;;;;8.78;100.00;102781.72;5114779;28;20020;-39
2024/02/17 06:01:52;;;;;;;11.53;7.67;;;;;;;8.73;100.00;102774.16;5114742;28;20028;-40
2024/02/17 06:04:17;;;;;;;13.63;7.17;;;;;;;8.85;100.00;102795.41;5114412;28;20039;-40
2024/02/17 06:06:42;;;;;;;8.75;7.00;;;;;;;8.86;100.00;102806.00;5114585;28;20024;-40
2024/02/17 06:09:08;;;;;;;10.13;6.80;;;;;;;8.80;100.00;102790.50;5114649;28;20028;-40
2024/02/17 06:11:33;;;;;;;14.57;7.43;;;;;;;8.86;100.00;102800.59;5114353;28;20102;-40
2024/02/17 06:13:58;;;;;;;11.60;7.20;;;;;;;8.80;100.00;102798.59;5114540;28;20329;-41
2024/02/17 06:16:28;;;;;;;11.20;7.73;;;;;;;8.82;100.00;102810.06;5114379;28;20039;-40
2024/02/17 06:21:37;;;;;;;14.88;7.85;;;;;;;8.81;100.00;102802.97;5114170;28;20035;-40
2024/02/17 06:24:03;;;;;;;11.40;7.47;;;;;;;8.83;100.00;102814.44;5114077;28;20035;-40
2024/02/17 06:26:30;;;;;;;14.60;8.18;;;;;;;8.82;100.00;102820.84;5114246;28;20059;-40
2024/02/17 06:28:57;;;;;;;12.48;8.15;;;;;;;8.83;100.00;102827.06;5114887;28;20051;-40
2024/02/17 06:31:23;;;;;;;10.93;6.97;;;;;;;8.76;100.00;102816.13;5114198;28;20031;-40
2024/02/17 06:33:49;;;;;;;13.02;7.25;;;;;;;8.77;100.00;102824.06;5114791;28;20474;-40
2024/02/17 06:36:14;;;;;;;11.43;7.57;;;;;;;8.82;100.00;102834.34;5114076;28;20114;-41
2024/02/17 06:38:41;;;;;;;11.90;7.97;;;;;;;8.82;100.00;102837.03;5114434;28;20034;-40
2024/02/17 06:41:09;;;;;;;12.23;8.60;;;;;;;8.79;100.00;102834.69;5114532;28;20024;-40
2024/02/17 06:43:34;;;;;;;10.77;7.70;;;;;;;8.71;100.00;102835.53;5113878;28;20028;-40
2024/02/17 06:46:00;;;;;;;12.77;8.45;;;;;;;8.78;100.00;102846.47;5114057;28;20035;-40
2024/02/17 06:48:26;;;;;;;11.93;8.30;;;;;;;8.74;100.00;102837.91;5114291;28;20039;-40
2024/02/17 06:50:54;;;;;;;;;;;;;;;8.87;100.00;102850.00;5114389;28;20031;-41
2024/02/17 06:53:20;;;;;;;8.93;7.15;;;;;;;8.76;100.00;102852.06;5113668;28;19914;-40
2024/02/17 06:55:46;;;;;;;12.30;8.10;;;;;;;8.79;100.00;102852.75;5113779;28;20134;-40
2024/02/17 06:58:12;;;;;;;10.32;8.45;;;;;;;8.75;100.00;102855.75;5113922;28;20487;-39
2024/02/17 07:00:37;;;;;;;14.00;8.65;;;;;;;8.76;100.00;102857.44;5113524;28;20107;-39
2024/02/17 07:03:04;;;;;;;10.97;7.87;;;;;;;8.75;100.00;102853.06;5114268;28;20110;-40
2024/02/17 07:05:31;;;;;;;13.27;8.23;;;;;;;8.79;100.00;102864.38;5113788;28;20288;-39
2024/02/17 07:07:57;;;;;;;12.88;7.50;;;;;;;8.82;100.00;102874.81;5114316;28;20059;-40
2024/02/17 07:10:22;;;;;;;15.48;7.93;;;;;;;8.74;100.00;102861.34;5114331;28;20103;-40
2024/02/17 07:12:47;;;;;;;11.90;7.20;;;;;;;8.83;100.00;102878.34;5114047;28;20447;-41
2024/02/17 07:15:13;;;;;;;15.93;8.03;;;;;;;8.82;100.00;102884.75;5113959;28;20073;-41
2024/02/17 07:17:38;;;;;;;13.33;7.47;;;;;;;8.85;100.00;102885.25;5116751;28;20277;-41
2024/02/17 07:20:05;;;;;;;14.63;7.97;;;;;;;8.80;100.00;102879.53;5118716;28;20099;-41
2024/02/17 07:22:30;;;;;;;16.95;8.50;;;;;;;8.86;100.00;102899.59;5117771;28;20043;-40
2024/02/17 07:24:55;;;;;;;13.95;8.00;;;;;;;8.87;100.00;102907.50;5118155;28;20146;-40
2024/02/17 07:27:22;;;;;;;13.10;7.83;;;;;;;8.89;100.00;102908.19;5117798;27;20028;-41
2024/02/17 07:29:48;;;;;;;12.13;7.10;;;;;;;8.88;100.00;102909.22;5117680;28;20024;-41
2024/02/17 07:32:14;;;;;;;16.35;8.43;;;;;;;8.84;100.00;102909.72;5117292;28;20035;-41
2024/02/17 07:34:42;;;;;;;12.45;7.72;;;;;;;8.90;100.00;102925.22;5118069;28;20019;-40
2024/02/17 07:37:07;;;;;;;14.57;7.45;;;;;;;8.92;100.00;102928.59;5117199;28;20032;-41
2024/02/17 07:39:35;;;;;;;11.17;7.27;;;;;;;8.93;100.00;102924.88;5117182;28;20035;-41
2024/02/17 07:42:01;;;;;;;16.98;8.18;;;;;;;8.92;100.00;102929.44;5117275;28;20031;-41
2024/02/17 07:44:27;;;;;;;12.35;7.53;;;;;;;8.96;100.00;102932.63;5116280;28;20028;-40
2024/02/17 07:46:52;;;;;;;10.15;7.38;;;;;;;8.85;100.00;102920.34;5117224;28;20524;-40
2024/02/17 07:49:18;;;;;;;14.77;7.72;;;;;;;8.98;100.00;102944.13;5117099;28;20061;-40
2024/02/17 07:51:44;;;;;;;12.63;7.00;;;;;;;8.97;100.00;102948.66;5117237;28;20469;-40
2024/02/17 07:54:09;;;;;;;18.95;8.30;;;;;;;8.99;100.00;102956.59;5117635;28;20024;-40
2024/02/17 07:56:34;;;;;;;13.25;7.38;;;;;;;9.00;100.00;102959.13;5117726;28;20047;-40
2024/02/17 07:59:00;;;;;;;13.33;7.03;;;;;;;8.98;100.00;102971.09;5117449;28;20032;-40
2024/02/17 08:01:25;;;;;;;11.50;7.15;;;;;;;9.00;100.00;102972.59;5117340;28;20031;-40
2024/02/17 08:03:51;;;;;;;11.93;7.07;;;;;;;9.00;100.00;102978.00;5117419;28;20518;-40
2024/02/17 08:06:19;;;;;;;12.70;6.77;;;;;;;8.99;100.00;102979.03;5117006;28;20266;-40
2024/02/17 08:08:45;;;;;;;10.73;6.60;;;;;;;8.93;100.00;102971.63;5116614;28;20535;-40
2024/02/17 08:11:11;;;;;;;;;;;;;;;9.09;100.00;102980.72;5117215;28;20063;-39
2024/02/17 08:13:38;;;;;;;11.23;7.00;;;;;;;9.03;100.00;102974.16;5117163;28;19912;-40
2024/02/17 08:16:04;;;;;;;11.52;6.57;;;;;;;9.03;100.00;102980.38;5117085;28;20023;-40
2024/02/17 08:18:29;;;;;;;13.50;6.90;;;;;;;9.06;100.00;102983.75;5116322;28;20164;-41
2024/02/17 08:20:56;;;;;;;10.68;6.55;;;;;;;9.08;100.00;102984.41;5116664;28;20373;-41
2024/02/17 08:23:21;;;;;;;11.93;6.63;;;;;;;9.01;100.00;102987.78;5116641;28;20024;-41
2024/02/17 08:25:46;;;;;;;14.27;7.20;;;;;;;9.09;100.00;102995.06;5116573;28;20027;-40
2024/02/17 08:28:12;;;;;;;16.10;6.50;;;;;;;9.10;100.00;103007.53;5115865;27;20475;-40
2024/02/17 08:30:37;;;;;;;16.08;6.97;;;;;;;9.12;100.00;103004.66;5116561;28;20046;-39
2024/02/17 08:33:02;;;;;;;12.60;6.27;;;;;;;9.13;100.00;103009.91;5117122;28;20058;-40
2024/02/17 08:35:28;;;;;;;13.30;6.97;;;;;;;9.13;100.00;103015.31;5116334;28;20031;-40
2024/02/17 08:37:53;;;;;;;11.07;6.30;;;;;;;9.17;100.00;103022.03;5116433;28;20285;-39
2024/02/17 08:40:18;;;;;;;13.53;6.27;;;;;;;9.15;100.00;103015.97;5116349;28;20045;-39
2024/02/17 08:42:44;;;;;;;14.13;6.63;;;;;;;9.15;100.00;103009.72;5116272;28;20030;-39
2024/02/17 08:45:10;;;;;;;11.55;6.53;;;;;;;9.21;100.00;103019.84;5117031;28;20253;-40
2024/02/17 08:47:35;;;;;;;10.63;6.15;;;;;;;9.27;100.00;103033.53;5116216;28;20323;-40
2024/02/17 08:50:01;;;;;;;13.07;6.63;;;;;;;9.24;100.00;103023.06;5116423;28;20072;-40
2024/02/17 08:52:26;;;;;;;9.37;6.23;;;;;;;9.30;100.00;103037.72;5115905;28;20024;-40
2024/02/17 08:54:51;;;;;;;13.20;6.03;;;;;;;9.26;100.00;103033.69;5116019;28;20020;-40
2024/02/17 08:57:17;;;;;;;11.80;5.83;;;;;;;9.34;100.00;103040.94;5116650;27;20054;-40
2024/02/17 08:59:42;;;;;;;15.20;6.38;;;;;;;9.37;100.00;103040.59;5116534;28;20036;-40
2024/02/17 09:02:08;;;;;;;10.90;5.90;;;;;;;9.40;100.00;103041.09;5116155;28;20028;-40
2024/02/17 09:04:33;;;;;;;9.23;5.78;;;;;;;9.36;100.00;103020.84;5116455;28;20430;-40
2024/02/17 09:06:59;;;;;;;12.07;6.45;;;;;;;9.46;100.00;103035.00;5116260;28;20016;-40
2024/02/17 09:09:28;;;;;;;12.75;6.03;;;;;;;9.46;100.00;103043.09;5116083;28;20023;-40
2024/02/17 09:11:53;;;;;;;11.40;6.03;;;;;;;9.49;100.00;103042.78;5116185;28;20486;-40
2024/02/17 09:14:18;;;;;;;10.77;6.20;;;;;;;9.50;100.00;103049.88;5115581;27;20062;-40
2024/02/17 09:16:44;;;;;;;23.80;6.80;;;;;;;9.51;100.00;103056.94;5115663;28;20381;-39
2024/02/17 09:19:09;;;;;;;13.33;5.63;;;;;;;9.52;100.00;103050.56;5115561;28;20023;-39
2024/02/17 09:21:36;;;;;;;12.38;6.57;;;;;;;9.55;100.00;103058.28;5115885;28;20266;-39
2024/02/17 09:24:02;;;;;;;12.20;6.10;;;;;;;9.51;100.00;103048.84;5115429;28;20072;-40
2024/02/17 09:26:27;;;;;;;9.98;5.93;;;;;;;9.61;100.00;103064.03;5115047;28;20106;-39
2024/02/17 09:28:52;;;;;;;14.20;6.00;;;;;;;9.49;100.00;103053.59;5115575;28;20015;-39
2024/02/17 09:31:18;;;;;;;12.27;6.20;;;;;;;9.58;100.00;103069.78;5115565;28;20035;-39
2024/02/17 09:33:43;;;;;;;12.73;5.80;;;;;;;9.64;100.00;103079.91;5115230;28;20284;-40
2024/02/17 09:36:08;;;;;;;10.20;6.17;;;;;;;9.48;100.00;103049.19;5115415;28;20119;-39
2024/02/17 09:38:34;;;;;;;11.60;6.57;;;;;;;9.69;100.00;103078.38;5114872;28;20258;-39
2024/02/17 09:41:00;;;;;;;12.20;6.90;;;;;;;9.70;100.00;103082.75;5115003;28;20472;-39
2024/02/17 09:43:25;;;;;;;12.07;5.65;;;;;;;9.73;100.00;103078.88;5114796;28;20023;-40
2024/02/17 09:45:51;;;;;;;9.93;6.03;;;;;;;9.75;100.00;103088.50;5114977;28;20043;-40
2024/02/17 09:48:17;;;;;;;12.88;7.03;;;;;;;9.77;100.00;103091.06;5115580;28;20267;-40
2024/02/17 09:50:44;;;;;;;13.23;6.25;;;;;;;9.80;100.00;103087.97;5115216;28;20024;-40
2024/02/17 09:53:10;;;;;;;13.55;6.15;;;;;;;9.82;100.00;103088.69;5115121;28;20028;-40
2024/02/17 09:55:46;;;;;;;10.18;5.93;;;;;;;9.89;100.00;103089.66;5114578;28;20360;-40
2024/02/17 09:58:14;;;;;;;11.65;6.03;;;;;;;9.93;100.00;103091.00;5114869;28;20072;-40
2024/02/17 10:00:42;;;;;;;15.27;5.80;;;;;;;9.96;100.00;103101.50;5115348;28;20111;-40
2024/02/17 10:03:09;;;;;;;11.30;5.90;;;;;;;10.01;100.00;103099.13;5114995;28;20119;-40
2024/02/17 10:05:34;;;;;;;16.35;6.85;;;;;;;10.04;100.00;103098.75;5114700;28;20023;-40
2024/02/17 10:08:03;;;;;;;9.67;6.03;;;;;;;10.07;100.00;103097.56;5113387;28;20027;-40
2024/02/17 10:10:29;;;;;;;10.68;5.78;;;;;;;10.11;100.00;103092.69;5115381;28;20249;-40
2024/02/17 10:12:58;;;;;;;14.43;5.90;;;;;;;10.13;100.00;103096.88;5114562;27;20084;-39
2024/02/17 10:15:24;;;;;;;14.98;6.30;;;;;;;10.07;100.00;103093.00;5114458;28;20277;-39
2024/02/17 10:17:53;;;;;;;12.13;6.25;;;;;;;10.09;100.00;103086.56;5114425;28;20038;-39
2024/02/17 10:20:18;;;;;;;12.68;5.68;;;;;;;10.19;100.00;103100.75;5114446;28;20035;-40
2024/02/17 10:22:45;;;;;;;10.90;5.30;;;;;;;10.14;100.00;103092.31;5114306;28;20034;-39
2024/02/17 10:25:12;;;;;;;10.60;5.03;;;;;;;10.25;100.00;103102.81;5114631;28;20031;-40
2024/02/17 10:27:39;;;;;;;9.68;4.85;;;;;;;10.30;100.00;103098.56;5114303;28;20030;-39
2024/02/17 10:30:08;;;;;;;11.90;5.40;;;;;;;10.37;100.00;103097.84;5114217;28;20463;-40
2024/02/17 10:32:34;;;;;;;8.25;5.35;;;;;;;10.44;100.00;103099.69;5114198;28;20352;-40
2024/02/17 10:35:04;;;;;;;8.75;5.32;;;;;;;10.53;100.00;103104.03;5114174;28;20026;-39
2024/02/17 10:37:31;;;;;;;12.35;5.80;;;;;;;10.55;100.00;103110.13;5113865;28;20023;-39
2024/02/17 10:40:00;;;;;;;11.75;5.38;;;;;;;10.55;100.00;103107.41;5113775;28;20034;-39
2024/02/17 10:42:26;;;;;;;9.40;5.28;;;;;;;10.62;100.00;103117.53;5113735;28;20466;-39
2024/02/17 10:44:51;;;;;;;13.18;6.03;;;;;;;10.68;100.00;103120.38;5114649;28;20032;-39
2024/02/17 10:47:20;;;;;;;9.65;5.40;;;;;;;10.70;100.00;103118.34;5114878;28;20055;-39
2024/02/17 10:49:49;;;;;;;12.95;5.78;;;;;;;10.72;100.00;103118.16;5114803;28;20031;-39
2024/02/17 10:52:20;;;;;;;8.40;5.30;;;;;;;10.89;100.00;103124.34;5113661;28;20104;-39
2024/02/17 10:54:56;;;;;;;9.48;5.47;;;;;;;10.91;100.00;103128.53;5114236;28;20023;-39
2024/02/17 10:57:22;;;;;;;11.18;5.63;;;;;;;10.88;100.00;103126.19;5114401;28;20089;-40
2024/02/17 10:59:54;;;;;;;12.15;6.07;;;;;;;10.90;100.00;103144.97;5114505;28;20039;-40
2024/02/17 11:02:24;;;;;;;9.43;5.25;;;;;;;10.93;100.00;103141.88;5114176;28;20047;-40
2024/02/17 11:04:50;;;;;;;9.60;5.20;;;;;;;10.93;100.00;103147.31;5114172;28;20084;-40
2024/02/17 11:07:16;;;;;;;9.18;5.40;;;;;;;10.95;100.00;103154.25;5113279;28;20030;-40
2024/02/17 11:09:44;;;;;;;7.55;5.63;;;;;;;10.95;100.00;103156.94;5112308;28;20077;-40
2024/02/17 11:12:28;;;;;;;10.05;5.38;;;;;;;10.97;100.00;103163.03;5113691;28;20024;-40
2024/02/17 11:15:19;;;;;;;11.50;5.82;;;;;;;11.01;100.00;103172.47;5114211;28;20127;-41